createdAt,value
2022-11-27T00:04:36.579Z,81.29
2022-11-27T00:09:38.343Z,80.20
2022-11-27T00:14:40.037Z,81.98
2022-11-27T00:19:41.531Z,83.22
2022-11-27T00:24:42.931Z,84.29
2022-11-27T00:29:44.245Z,84.03
2022-11-27T00:34:45.635Z,85.62
2022-11-27T00:39:46.959Z,86.42
2022-11-27T00:44:48.262Z,87.21
2022-11-27T00:54:59.474Z,83.80
2022-11-27T01:00:00.751Z,82.84
2022-11-27T01:05:01.996Z,82.53
2022-11-27T01:10:03.363Z,82.14
2022-11-27T01:15:04.640Z,83.79
2022-11-27T01:20:05.916Z,85.09
2022-11-27T01:25:07.141Z,85.49
2022-11-27T01:30:08.424Z,85.60
2022-11-27T01:35:09.714Z,86.15
2022-11-27T01:40:10.999Z,85.73
2022-11-27T01:45:12.252Z,86.56
2022-11-27T01:50:13.508Z,87.16
2022-11-27T01:55:19.091Z,86.88
2022-11-27T02:00:20.371Z,86.48
2022-11-27T02:05:21.665Z,85.84
2022-11-27T02:10:22.981Z,85.51
2022-11-27T02:15:24.246Z,84.52
2022-11-27T02:20:25.532Z,84.17
2022-11-27T02:25:28.418Z,83.73
2022-11-27T02:30:29.989Z,83.02
2022-11-27T02:35:31.294Z,83.58
2022-11-27T02:40:32.656Z,83.56
2022-11-27T02:45:34.004Z,83.33
2022-11-27T02:50:35.221Z,83.08
2022-11-27T02:55:36.529Z,83.44
2022-11-27T03:00:37.887Z,83.14
2022-11-27T03:05:39.196Z,82.96
2022-11-27T03:10:40.503Z,84.45
2022-11-27T03:15:41.790Z,84.98
2022-11-27T03:20:43.163Z,84.84
2022-11-27T03:25:44.422Z,84.76
2022-11-27T03:30:45.660Z,85.19
2022-11-27T03:35:46.911Z,84.67
2022-11-27T03:40:48.166Z,84.59
2022-11-27T03:45:49.479Z,84.87
2022-11-27T03:50:50.751Z,84.91
2022-11-27T03:55:52.060Z,84.66
2022-11-27T04:00:53.269Z,85.09
2022-11-27T04:05:54.477Z,85.12
2022-11-27T04:10:55.782Z,85.58
2022-11-27T04:15:57.158Z,86.27
2022-11-27T04:20:58.477Z,86.73
2022-11-27T04:25:59.758Z,86.54
2022-11-27T04:31:01.003Z,87.43
2022-11-27T04:36:02.322Z,88.18
2022-11-27T04:41:03.782Z,89.39
2022-11-27T04:46:05.072Z,90.25
2022-11-27T04:51:06.378Z,90.93
2022-11-27T04:56:07.633Z,90.46
2022-11-27T05:01:09.075Z,88.96
2022-11-27T05:06:10.383Z,87.80
2022-11-27T05:11:11.668Z,86.15
2022-11-27T05:16:13.230Z,86.00
2022-11-27T05:21:14.592Z,84.56
2022-11-27T05:26:16.098Z,84.59
2022-11-27T05:31:17.609Z,84.00
2022-11-27T05:36:18.938Z,84.55
2022-11-27T05:41:20.410Z,84.89
2022-11-27T05:46:21.810Z,84.45
2022-11-27T05:51:23.248Z,84.35
2022-11-27T05:56:24.550Z,85.33
2022-11-27T06:01:25.957Z,85.84
2022-11-27T06:06:27.261Z,86.25
2022-11-27T06:11:28.495Z,85.90
2022-11-27T06:16:29.791Z,85.50
2022-11-27T06:21:31.148Z,84.84
2022-11-27T06:26:32.497Z,85.78
2022-11-27T06:31:33.880Z,85.95
2022-11-27T06:36:35.178Z,85.58
2022-11-27T06:41:36.858Z,85.53
2022-11-27T06:46:38.175Z,84.88
2022-11-27T06:51:39.506Z,85.58
2022-11-27T06:56:40.891Z,86.52
2022-11-27T07:01:42.765Z,86.20
2022-11-27T07:06:44.220Z,87.62
2022-11-27T07:11:45.502Z,90.21
2022-11-27T07:16:46.898Z,91.37
2022-11-27T07:21:48.177Z,91.08
2022-11-27T07:26:49.459Z,89.68
2022-11-27T07:31:51.943Z,89.45
2022-11-27T07:36:53.376Z,89.24
2022-11-27T07:41:57.387Z,89.10
2022-11-27T07:47:01.254Z,88.92
2022-11-27T07:52:02.472Z,88.09
2022-11-27T07:57:03.687Z,88.08
2022-11-27T08:02:05.047Z,87.26
2022-11-27T08:07:06.450Z,87.61
2022-11-27T08:12:07.711Z,88.50
2022-11-27T08:17:08.989Z,87.79
2022-11-27T08:22:10.456Z,88.62
2022-11-27T08:27:11.750Z,89.05
2022-11-27T08:32:13.013Z,89.73
2022-11-27T08:37:14.244Z,89.75
2022-11-27T08:42:16.800Z,89.24
2022-11-27T08:47:18.200Z,88.69
2022-11-27T08:52:20.586Z,88.90
2022-11-27T08:57:21.870Z,88.34
2022-11-27T09:02:23.098Z,88.23
2022-11-27T09:07:24.378Z,88.77
2022-11-27T09:12:25.961Z,88.84
2022-11-27T09:17:27.266Z,90.22
2022-11-27T09:22:28.515Z,91.41
2022-11-27T09:27:29.733Z,91.24
2022-11-27T09:32:30.999Z,91.38
2022-11-27T09:37:32.410Z,91.61
2022-11-27T09:42:33.683Z,90.89
2022-11-27T09:47:38.483Z,90.80
2022-11-27T09:52:42.658Z,90.07
2022-11-27T09:57:43.918Z,88.96
2022-11-27T10:02:45.434Z,88.73
2022-11-27T10:07:46.862Z,87.98
2022-11-27T10:12:48.223Z,87.94
2022-11-27T10:17:52.162Z,88.34
2022-11-27T10:22:53.375Z,88.97
2022-11-27T10:27:54.617Z,89.94
2022-11-27T10:32:56.573Z,89.27
2022-11-27T10:38:01.005Z,87.70
2022-11-27T10:43:06.391Z,87.08
2022-11-27T10:48:07.614Z,86.54
2022-11-27T10:53:08.894Z,86.49
2022-11-27T10:58:10.106Z,85.26
2022-11-27T11:03:11.316Z,84.42
2022-11-27T11:08:12.517Z,85.29
2022-11-27T11:13:14.409Z,88.54
2022-11-27T11:18:15.673Z,82.17
2022-11-27T11:23:16.885Z,94.45
2022-11-27T11:28:18.156Z,80.59
2022-11-27T11:33:19.430Z,70.23
2022-11-27T11:38:20.658Z,74.73
2022-11-27T11:43:22.070Z,77.08
2022-11-27T11:48:23.809Z,77.99
2022-11-27T11:53:25.027Z,78.76
2022-11-27T11:58:26.386Z,80.51
2022-11-27T12:03:27.638Z,81.29
2022-11-27T12:08:29.018Z,81.42
2022-11-27T12:13:33.172Z,88.52
2022-11-27T12:24:20.756Z,74.01
2022-11-27T12:29:22.004Z,78.13
2022-11-27T12:34:23.255Z,80.18
2022-11-27T12:39:25.578Z,80.85
2022-11-27T12:44:30.173Z,80.67
2022-11-27T12:49:32.597Z,80.34
2022-11-27T12:54:33.930Z,80.78
2022-11-27T12:59:35.224Z,81.43
2022-11-27T13:04:36.481Z,81.67
2022-11-27T13:09:37.865Z,81.69
2022-11-27T13:14:39.560Z,83.07
2022-11-27T13:19:41.130Z,82.64
2022-11-27T13:24:42.776Z,82.35
2022-11-27T13:29:44.508Z,82.67
2022-11-27T13:34:45.797Z,82.96
2022-11-27T13:39:47.008Z,83.31
2022-11-27T13:44:48.266Z,82.43
2022-11-27T13:49:49.484Z,82.01
2022-11-27T13:54:50.741Z,82.23
2022-11-27T13:59:51.999Z,82.76
2022-11-27T14:04:56.498Z,83.07
2022-11-27T14:09:57.944Z,84.38
2022-11-27T14:14:59.217Z,84.65
2022-11-27T14:20:00.464Z,84.17
2022-11-27T14:25:01.656Z,84.23
2022-11-27T14:30:02.894Z,82.58
2022-11-27T14:35:04.386Z,83.08
2022-11-27T14:40:05.618Z,83.90
2022-11-27T14:45:06.900Z,83.68
2022-11-27T14:50:08.244Z,84.25
2022-11-27T14:55:09.553Z,84.08
2022-11-27T15:00:10.792Z,84.52
2022-11-27T15:05:12.024Z,85.49
2022-11-27T15:10:13.229Z,85.07
2022-11-27T15:15:14.463Z,83.83
2022-11-27T15:20:15.751Z,84.49
2022-11-27T15:25:16.982Z,84.19
2022-11-27T15:30:18.395Z,84.10
2022-11-27T15:35:19.743Z,83.88
2022-11-27T15:40:20.990Z,83.98
2022-11-27T15:45:22.335Z,83.60
2022-11-27T15:50:23.721Z,83.46
2022-11-27T15:55:25.050Z,84.32
2022-11-27T16:00:26.267Z,83.84
2022-11-27T16:05:27.532Z,83.73
2022-11-27T16:10:28.881Z,83.07
2022-11-27T16:15:32.992Z,83.55
2022-11-27T16:20:34.514Z,83.54
2022-11-27T16:25:35.713Z,82.14
2022-11-27T16:30:36.973Z,81.83
2022-11-27T16:35:38.222Z,82.43
2022-11-27T16:40:39.433Z,81.95
2022-11-27T16:45:40.710Z,82.11
2022-11-27T16:50:41.952Z,82.25
2022-11-27T16:55:43.193Z,82.91
2022-11-27T17:00:44.436Z,82.72
2022-11-27T17:05:51.234Z,83.80
2022-11-27T17:10:52.716Z,84.40
2022-11-27T17:15:53.916Z,84.68
2022-11-27T17:20:55.158Z,85.01
2022-11-27T17:25:56.370Z,84.74
2022-11-27T17:30:57.604Z,83.86
2022-11-27T17:35:59.010Z,82.80
2022-11-27T17:41:00.260Z,81.88
2022-11-27T17:46:01.529Z,81.99
2022-11-27T17:51:02.772Z,82.05
2022-11-27T17:56:04.292Z,81.60
2022-11-27T18:01:05.606Z,81.12
2022-11-27T18:06:07.006Z,80.47
2022-11-27T18:11:08.269Z,80.73
2022-11-27T18:16:09.605Z,81.24
2022-11-27T18:21:15.273Z,81.27
2022-11-27T18:26:19.392Z,82.42
2022-11-27T18:31:20.712Z,82.58
2022-11-27T18:36:22.025Z,82.13
2022-11-27T18:41:28.200Z,81.94
2022-11-27T18:46:29.567Z,81.11
2022-11-27T18:51:30.878Z,82.13
2022-11-27T18:56:32.131Z,82.66
2022-11-27T19:01:38.322Z,81.92
2022-11-27T19:06:43.186Z,81.71
2022-11-27T19:11:44.445Z,82.05
2022-11-27T19:16:48.656Z,82.63
2022-11-27T19:21:49.952Z,82.73
2022-11-27T19:26:51.156Z,83.13
2022-11-27T19:31:55.079Z,83.30
2022-11-27T19:36:58.324Z,83.10
2022-11-27T19:41:59.829Z,82.97
2022-11-27T19:47:01.065Z,83.12
2022-11-27T19:52:02.434Z,83.23
2022-11-27T19:57:04.317Z,82.38
2022-11-27T20:02:05.722Z,82.26
2022-11-27T20:07:08.048Z,82.43
2022-11-27T20:12:09.334Z,82.46
2022-11-27T20:17:10.583Z,82.14
2022-11-27T20:22:12.059Z,81.69
2022-11-27T20:27:13.367Z,81.84
2022-11-27T20:32:14.607Z,81.85
2022-11-27T20:37:15.906Z,81.95
2022-11-27T20:42:17.359Z,81.57
2022-11-27T20:47:18.644Z,81.09
2022-11-27T20:52:19.852Z,81.60
2022-11-27T20:57:21.235Z,81.81
2022-11-27T21:02:22.543Z,80.49
2022-11-27T21:07:23.842Z,82.12
2022-11-27T21:12:25.139Z,82.88
2022-11-27T21:17:26.422Z,81.96
2022-11-27T21:22:27.652Z,82.09
2022-11-27T21:27:28.941Z,81.91
2022-11-27T21:32:30.179Z,82.35
2022-11-27T21:37:31.408Z,82.23
2022-11-27T21:42:32.748Z,82.17
2022-11-27T21:47:34.012Z,81.71
2022-11-27T21:52:35.610Z,82.48
2022-11-27T21:57:36.841Z,81.37
2022-11-27T22:02:38.321Z,80.20
2022-11-27T22:07:39.699Z,79.96
2022-11-27T22:12:41.014Z,81.18
2022-11-27T22:17:42.294Z,81.58
2022-11-27T22:22:43.628Z,81.71
2022-11-27T22:27:44.843Z,81.05
2022-11-27T22:32:46.055Z,81.83
2022-11-27T22:37:47.514Z,82.46
2022-11-27T22:42:48.823Z,84.34
2022-11-27T22:47:50.126Z,84.40
2022-11-27T22:52:55.728Z,84.58
2022-11-27T22:57:59.329Z,83.56
2022-11-27T23:03:00.713Z,82.19
2022-11-27T23:08:02.109Z,82.35
2022-11-27T23:13:03.391Z,82.14
2022-11-27T23:18:04.954Z,82.70
2022-11-27T23:23:06.230Z,82.58
2022-11-27T23:28:07.615Z,81.95
2022-11-27T23:33:08.873Z,81.35
2022-11-27T23:38:10.201Z,80.49
2022-11-27T23:43:11.553Z,79.81
2022-11-27T23:48:12.834Z,79.14
2022-11-27T23:53:14.201Z,78.68
2022-11-27T23:58:16.663Z,80.39
